createdAt,value
2022-08-08T00:00:52.903Z,58.01
2022-08-08T00:00:53.279Z,58.33
2022-08-08T00:02:03.830Z,57.85
2022-08-08T00:02:33.165Z,55.59
2022-08-08T00:03:32.439Z,54.46
2022-08-08T00:04:27.911Z,56.07
2022-08-08T00:05:44.089Z,54.79
2022-08-08T00:06:28.271Z,54.79
2022-08-08T00:07:28.618Z,56.88
2022-08-08T00:08:27.181Z,54.62
2022-08-08T00:09:25.325Z,52.69
2022-08-08T00:10:28.627Z,52.37
2022-08-08T00:11:25.299Z,54.30
2022-08-08T00:12:26.312Z,56.24
2022-08-08T00:14:14.657Z,58.49
2022-08-08T00:14:47.736Z,60.59
2022-08-08T00:15:57.157Z,57.36
2022-08-08T00:16:26.234Z,51.56
2022-08-08T00:17:25.249Z,52.05
2022-08-08T00:18:25.182Z,52.05
2022-08-08T00:19:25.172Z,53.33
2022-08-08T00:20:25.166Z,49.79
2022-08-08T00:21:25.160Z,48.82
2022-08-08T00:22:25.162Z,55.75
2022-08-08T00:23:28.564Z,54.46
2022-08-08T00:24:30.060Z,58.81
2022-08-08T00:25:25.071Z,54.62
2022-08-08T00:26:29.162Z,58.33
2022-08-08T00:27:25.067Z,60.91
2022-08-08T00:28:35.109Z,59.78
2022-08-08T00:29:45.377Z,58.17
2022-08-08T00:30:26.006Z,53.66
2022-08-08T00:32:29.297Z,60.42
2022-08-08T00:32:35.171Z,60.26
2022-08-08T00:33:26.000Z,53.01
2022-08-08T00:34:26.937Z,50.27
2022-08-08T00:35:24.925Z,53.50
2022-08-08T00:36:25.581Z,57.20
2022-08-08T00:37:45.036Z,56.72
2022-08-08T00:38:31.607Z,55.11
2022-08-08T00:41:05.705Z,59.30
2022-08-08T00:41:09.361Z,52.21
2022-08-08T00:41:54.842Z,55.11
2022-08-08T00:42:33.263Z,54.95
2022-08-08T00:43:29.541Z,57.85
2022-08-08T00:44:25.794Z,57.85
2022-08-08T00:45:29.513Z,49.95
2022-08-08T00:46:25.742Z,50.92
2022-08-08T00:47:24.732Z,57.52
2022-08-08T00:48:30.478Z,56.88
2022-08-08T00:49:27.291Z,57.52
2022-08-08T00:50:25.672Z,59.94
2022-08-08T00:51:24.674Z,50.60
2022-08-08T00:52:29.188Z,55.11
2022-08-08T00:53:29.442Z,59.62
2022-08-08T00:54:28.763Z,56.40
2022-08-08T00:55:52.449Z,54.79
2022-08-08T00:56:30.025Z,58.81
2022-08-08T00:57:34.675Z,56.07
2022-08-08T00:58:30.564Z,61.07
2022-08-08T00:59:44.624Z,60.59
2022-08-08T01:00:25.793Z,58.81
2022-08-08T01:01:36.444Z,62.52
2022-08-08T01:03:54.097Z,58.01
2022-08-08T01:03:59.799Z,59.30
2022-08-08T01:04:26.815Z,54.46
2022-08-08T01:05:41.856Z,56.56
2022-08-08T01:06:27.632Z,52.69
2022-08-08T01:07:54.056Z,58.01
2022-08-08T01:08:28.622Z,59.94
2022-08-08T01:09:36.007Z,57.85
2022-08-08T01:10:25.370Z,56.72
2022-08-08T01:11:24.398Z,60.91
2022-08-08T01:12:25.741Z,56.88
2022-08-08T01:13:43.698Z,56.40
2022-08-08T01:14:53.542Z,56.40
2022-08-08T01:15:37.149Z,63.16
2022-08-08T01:16:27.793Z,54.30
2022-08-08T01:17:34.952Z,56.24
2022-08-08T01:18:53.321Z,56.24
2022-08-08T01:19:42.016Z,57.20
2022-08-08T01:20:25.205Z,59.30
2022-08-08T01:21:34.549Z,57.69
2022-08-08T01:22:35.180Z,62.36
2022-08-08T01:24:02.786Z,58.81
2022-08-08T01:24:25.148Z,55.59
2022-08-08T01:25:26.299Z,59.14
2022-08-08T01:26:25.115Z,57.04
2022-08-08T01:27:32.937Z,62.04
2022-08-08T01:28:28.211Z,59.30
2022-08-08T01:29:24.397Z,58.81
2022-08-08T01:30:25.066Z,56.56
2022-08-08T01:32:13.343Z,58.81
2022-08-08T01:32:26.979Z,57.52
2022-08-08T01:33:28.000Z,59.46
2022-08-08T01:34:29.117Z,58.97
2022-08-08T01:35:30.179Z,59.94
2022-08-08T01:36:24.950Z,58.65
2022-08-08T01:37:51.168Z,60.10
2022-08-08T01:38:24.943Z,55.75
2022-08-08T01:39:28.056Z,54.14
2022-08-08T01:40:23.890Z,60.42
2022-08-08T01:41:23.880Z,58.01
2022-08-08T01:42:35.594Z,61.39
2022-08-08T01:43:24.874Z,57.20
2022-08-08T01:44:26.322Z,58.33
2022-08-08T01:45:23.818Z,55.91
2022-08-08T01:46:23.825Z,59.46
2022-08-08T01:48:16.293Z,57.20
2022-08-08T01:48:31.442Z,62.04
2022-08-08T01:49:37.138Z,61.87
2022-08-08T01:50:25.598Z,57.04
2022-08-08T01:51:31.826Z,58.33
2022-08-08T01:52:51.129Z,57.20
2022-08-08T01:55:16.551Z,60.75
2022-08-08T01:55:18.789Z,59.30
2022-08-08T01:56:27.306Z,57.36
2022-08-08T01:56:31.119Z,55.59
2022-08-08T01:57:24.625Z,57.85
2022-08-08T01:58:38.484Z,63.33
2022-08-08T01:59:24.602Z,59.30
2022-08-08T02:00:24.581Z,56.56
2022-08-08T02:01:23.597Z,54.95
2022-08-08T02:02:34.569Z,58.01
2022-08-08T02:03:56.959Z,59.78
2022-08-08T02:04:24.513Z,60.91
2022-08-08T02:05:23.571Z,55.91
2022-08-08T02:06:32.418Z,58.97
2022-08-08T02:07:24.467Z,60.26
2022-08-08T02:08:23.495Z,60.42
2022-08-08T02:10:01.814Z,60.42
2022-08-08T02:10:29.611Z,57.85
2022-08-08T02:11:59.010Z,58.97
2022-08-08T02:12:24.447Z,58.81
2022-08-08T02:13:52.628Z,61.39
2022-08-08T02:14:24.376Z,57.36
2022-08-08T02:15:23.329Z,60.91
2022-08-08T02:16:23.317Z,58.49
2022-08-08T02:17:23.325Z,56.56
2022-08-08T02:18:23.314Z,61.71
2022-08-08T02:19:41.586Z,60.91
2022-08-08T02:21:00.822Z,59.94
2022-08-08T02:21:24.230Z,59.30
2022-08-08T02:22:28.109Z,62.84
2022-08-08T02:23:32.022Z,62.68
2022-08-08T02:24:24.199Z,60.42
2022-08-08T02:25:23.187Z,59.78
2022-08-08T02:26:24.178Z,61.87
2022-08-08T02:27:23.156Z,58.17
2022-08-08T02:28:25.978Z,56.88
2022-08-08T02:29:24.136Z,58.33
2022-08-08T02:30:24.847Z,60.42
2022-08-08T02:31:58.134Z,64.29
2022-08-08T02:32:26.321Z,61.23
2022-08-08T02:33:23.086Z,59.62
2022-08-08T02:34:33.219Z,61.07
2022-08-08T02:35:24.036Z,64.45
2022-08-08T02:36:23.735Z,56.88
2022-08-08T02:37:53.110Z,61.23
2022-08-08T02:38:25.663Z,60.91
2022-08-08T02:39:41.270Z,59.94
2022-08-08T02:40:23.977Z,64.29
2022-08-08T02:41:59.614Z,59.94
2022-08-08T02:42:36.160Z,59.62
2022-08-08T02:44:37.850Z,60.26
2022-08-08T02:44:39.377Z,60.75
2022-08-08T02:45:23.868Z,62.04
2022-08-08T02:46:22.831Z,60.10
2022-08-08T02:47:22.835Z,62.04
2022-08-08T02:48:26.158Z,60.75
2022-08-08T02:49:47.467Z,60.91
2022-08-08T02:50:23.773Z,61.87
2022-08-08T02:51:30.588Z,63.00
2022-08-08T02:52:50.364Z,62.84
2022-08-08T02:53:24.017Z,60.42
2022-08-08T02:54:22.721Z,62.36
2022-08-08T02:55:23.696Z,62.52
2022-08-08T02:56:22.675Z,62.36
2022-08-08T02:57:23.973Z,64.13
2022-08-08T02:58:22.663Z,61.55
2022-08-08T02:59:36.722Z,63.16
2022-08-08T03:00:31.394Z,60.59
2022-08-08T03:01:23.673Z,61.71
2022-08-08T03:02:26.077Z,62.20
2022-08-08T03:05:01.725Z,61.87
2022-08-08T03:05:03.186Z,63.49
2022-08-08T03:05:23.534Z,62.04
2022-08-08T03:06:30.589Z,57.36
2022-08-08T03:07:23.500Z,61.71
2022-08-08T03:08:22.534Z,59.62
2022-08-08T03:09:22.463Z,61.39
2022-08-08T03:10:33.773Z,61.87
2022-08-08T03:11:31.791Z,59.30
2022-08-08T03:12:36.034Z,63.49
2022-08-08T03:13:34.210Z,65.74
2022-08-08T03:15:58.630Z,60.59
2022-08-08T03:16:00.544Z,64.94
2022-08-08T03:16:35.459Z,62.52
2022-08-08T03:17:39.104Z,58.81
2022-08-08T03:18:31.391Z,61.87
2022-08-08T03:19:23.320Z,60.59
2022-08-08T03:20:22.293Z,62.84
2022-08-08T03:21:40.604Z,61.23
2022-08-08T03:22:38.833Z,62.36
2022-08-08T03:23:23.629Z,58.97
2022-08-08T03:24:22.225Z,59.30
2022-08-08T03:25:22.215Z,63.49
2022-08-08T03:26:23.196Z,60.59
2022-08-08T03:27:27.274Z,62.52
2022-08-08T03:28:23.259Z,62.04
2022-08-08T03:29:51.407Z,62.04
2022-08-08T03:30:23.138Z,62.68
2022-08-08T03:31:25.474Z,62.84
2022-08-08T03:32:22.118Z,62.20
2022-08-08T03:33:55.190Z,62.84
2022-08-08T03:34:23.086Z,61.23
2022-08-08T03:35:22.067Z,64.45
2022-08-08T03:36:27.913Z,60.59
2022-08-08T03:38:54.116Z,64.78
2022-08-08T03:38:54.600Z,61.71
2022-08-08T03:39:23.051Z,59.62
2022-08-08T03:40:30.219Z,62.84
2022-08-08T03:42:27.470Z,59.78
2022-08-08T03:42:30.291Z,64.13
2022-08-08T03:43:22.978Z,61.39
2022-08-08T03:44:25.634Z,61.55
2022-08-08T03:46:04.925Z,61.39
2022-08-08T03:46:25.423Z,64.78
2022-08-08T03:47:22.057Z,61.55
2022-08-08T03:49:09.120Z,61.55
2022-08-08T03:49:58.078Z,64.29
2022-08-08T03:50:24.603Z,64.94
2022-08-08T03:51:40.489Z,62.20
2022-08-08T03:52:22.824Z,59.30
2022-08-08T03:53:37.863Z,63.16
2022-08-08T03:54:40.595Z,62.84
2022-08-08T03:55:55.634Z,60.42
2022-08-08T03:56:31.590Z,63.97
2022-08-08T03:58:32.415Z,61.07
2022-08-08T03:58:35.615Z,64.94
2022-08-08T03:59:23.362Z,61.39
2022-08-08T04:00:21.675Z,64.29
2022-08-08T04:01:24.580Z,62.36
2022-08-08T04:02:36.908Z,63.49
2022-08-08T04:03:25.948Z,62.84
2022-08-08T04:04:23.088Z,62.84
2022-08-08T04:05:28.241Z,62.36
2022-08-08T04:06:22.588Z,63.33
2022-08-08T04:07:21.554Z,64.45
2022-08-08T04:08:33.276Z,66.06
2022-08-08T04:09:22.521Z,62.04
2022-08-08T04:10:21.513Z,62.84
2022-08-08T04:11:23.651Z,60.42
2022-08-08T04:12:21.466Z,63.97
2022-08-08T04:13:21.505Z,64.29
2022-08-08T04:14:33.484Z,61.23
2022-08-08T04:15:22.555Z,62.36
2022-08-08T04:16:22.408Z,63.97
2022-08-08T04:17:57.999Z,64.78
2022-08-08T04:18:22.443Z,60.91
2022-08-08T04:19:25.179Z,62.84
2022-08-08T04:20:21.372Z,63.16
2022-08-08T04:21:22.853Z,60.59
2022-08-08T04:22:24.273Z,63.65
2022-08-08T04:23:21.346Z,64.78
2022-08-08T04:24:28.951Z,63.00
2022-08-08T04:25:22.366Z,65.74
2022-08-08T04:26:22.278Z,63.81
2022-08-08T04:28:03.090Z,63.97
2022-08-08T04:28:36.992Z,62.84
2022-08-08T04:29:22.202Z,62.36
2022-08-08T04:30:21.182Z,61.87
2022-08-08T04:31:59.437Z,62.36
2022-08-08T04:32:30.308Z,65.10
2022-08-08T04:33:22.203Z,62.20
2022-08-08T04:34:21.124Z,61.39
2022-08-08T04:35:22.809Z,60.59
2022-08-08T04:36:21.082Z,63.97
2022-08-08T04:37:21.070Z,62.20
2022-08-08T04:38:22.340Z,63.49
2022-08-08T04:40:05.461Z,63.00
2022-08-08T04:40:24.243Z,61.87
2022-08-08T04:41:21.553Z,63.16
2022-08-08T04:42:21.002Z,64.94
2022-08-08T04:43:22.029Z,63.65
2022-08-08T04:44:21.059Z,60.59
2022-08-08T04:45:20.934Z,59.46
2022-08-08T04:46:20.930Z,62.84
2022-08-08T04:47:20.909Z,59.30
2022-08-08T04:48:21.961Z,60.42
2022-08-08T04:49:20.869Z,60.42
2022-08-08T04:50:24.493Z,63.00
2022-08-08T04:51:28.044Z,60.42
2022-08-08T04:52:25.349Z,58.97
2022-08-08T04:54:36.521Z,62.36
2022-08-08T04:54:39.649Z,63.33
2022-08-08T04:55:21.810Z,62.36
2022-08-08T04:56:20.763Z,62.84
2022-08-08T04:57:20.772Z,59.78
2022-08-08T04:58:20.777Z,62.36
2022-08-08T04:59:24.205Z,61.71
2022-08-08T05:00:21.767Z,62.84
2022-08-08T05:01:20.719Z,61.23
2022-08-08T05:02:22.485Z,61.87
2022-08-08T05:04:09.033Z,64.94
2022-08-08T05:04:21.645Z,58.97
2022-08-08T05:05:44.719Z,62.36
2022-08-08T05:06:25.668Z,63.49
2022-08-08T05:07:21.607Z,61.87
2022-08-08T05:08:20.624Z,63.49
2022-08-08T05:09:21.567Z,64.61
2022-08-08T05:10:20.548Z,62.84
2022-08-08T05:11:22.714Z,61.23
2022-08-08T05:12:21.529Z,61.07
2022-08-08T05:13:21.540Z,62.84
2022-08-08T05:14:20.823Z,62.36
2022-08-08T05:15:20.472Z,63.65
2022-08-08T05:16:55.239Z,62.36
2022-08-08T05:17:21.621Z,61.39
2022-08-08T05:18:20.494Z,59.78
2022-08-08T05:20:10.476Z,63.33
2022-08-08T05:20:21.393Z,61.39
2022-08-08T05:21:20.369Z,62.36
2022-08-08T05:22:20.368Z,63.16
2022-08-08T05:23:20.454Z,62.84
2022-08-08T05:24:22.461Z,58.81
2022-08-08T05:25:21.599Z,61.55
2022-08-08T05:26:20.284Z,64.29
2022-08-08T05:27:22.288Z,62.04
2022-08-08T05:28:48.440Z,62.36
2022-08-08T05:29:22.272Z,62.20
2022-08-08T05:30:28.385Z,61.39
2022-08-08T05:32:05.604Z,58.49
2022-08-08T05:32:29.164Z,55.27
2022-08-08T05:33:21.256Z,60.26
2022-08-08T05:34:20.806Z,60.75
2022-08-08T05:35:23.513Z,60.59
2022-08-08T05:36:25.647Z,59.30
2022-08-08T05:37:21.104Z,62.20
2022-08-08T05:38:30.632Z,60.75
2022-08-08T05:39:21.244Z,58.97
2022-08-08T05:40:21.641Z,61.23
2022-08-08T05:41:21.733Z,59.30
2022-08-08T05:42:25.540Z,60.91
2022-08-08T05:43:39.606Z,57.20
2022-08-08T05:44:21.023Z,59.78
2022-08-08T05:45:25.173Z,57.85
2022-08-08T05:46:20.986Z,57.52
2022-08-08T05:47:20.910Z,59.30
2022-08-08T05:48:54.278Z,58.17
2022-08-08T05:49:19.925Z,61.07
2022-08-08T05:50:19.921Z,59.62
2022-08-08T05:51:19.888Z,61.39
2022-08-08T05:52:19.883Z,59.46
2022-08-08T05:53:53.752Z,57.36
2022-08-08T05:54:28.942Z,59.30
2022-08-08T05:55:20.848Z,60.75
2022-08-08T05:56:19.814Z,58.49
2022-08-08T05:57:20.948Z,61.39
2022-08-08T05:58:24.058Z,61.07
2022-08-08T06:00:00.214Z,59.78
2022-08-08T06:00:25.237Z,59.94
2022-08-08T06:01:55.750Z,59.46
2022-08-08T06:02:20.736Z,57.20
2022-08-08T06:03:29.582Z,59.14
2022-08-08T06:04:23.536Z,58.49
2022-08-08T06:05:33.460Z,58.17
2022-08-08T06:06:23.383Z,57.69
2022-08-08T06:07:20.712Z,58.33
2022-08-08T06:08:28.278Z,59.94
2022-08-08T06:10:00.490Z,57.20
2022-08-08T06:10:24.447Z,56.07
2022-08-08T06:11:19.599Z,60.10
2022-08-08T06:12:29.712Z,57.69
2022-08-08T06:13:22.545Z,58.81
2022-08-08T06:14:20.708Z,57.04
2022-08-08T06:15:19.541Z,58.49
2022-08-08T06:16:27.649Z,55.75
2022-08-08T06:17:20.502Z,62.84
2022-08-08T06:18:22.389Z,57.85
2022-08-08T06:19:19.517Z,61.23
2022-08-08T06:20:19.832Z,59.94
2022-08-08T06:21:32.737Z,58.17
2022-08-08T06:22:35.756Z,57.85
2022-08-08T06:23:23.497Z,57.20
2022-08-08T06:24:23.307Z,55.59
2022-08-08T06:26:34.771Z,54.95
2022-08-08T06:26:44.839Z,54.95
2022-08-08T06:27:20.359Z,57.85
2022-08-08T06:28:20.372Z,59.78
2022-08-08T06:29:48.862Z,55.75
2022-08-08T06:30:26.342Z,58.17
2022-08-08T06:31:20.311Z,59.62
2022-08-08T06:32:20.344Z,56.40
2022-08-08T06:33:37.361Z,54.62
2022-08-08T06:34:26.127Z,54.14
2022-08-08T06:36:06.432Z,58.81
2022-08-08T06:36:20.246Z,55.91
2022-08-08T06:37:25.087Z,56.72
2022-08-08T06:38:20.494Z,58.49
2022-08-08T06:39:20.495Z,57.04
2022-08-08T06:40:19.171Z,58.49
2022-08-08T06:41:19.154Z,57.85
2022-08-08T06:42:19.383Z,61.71
2022-08-08T06:43:19.136Z,55.91
2022-08-08T06:44:24.915Z,58.81
2022-08-08T06:45:20.323Z,58.17
2022-08-08T06:46:19.068Z,57.20
2022-08-08T06:47:22.178Z,57.52
2022-08-08T06:48:19.035Z,58.01
2022-08-08T06:49:19.154Z,55.27
2022-08-08T06:50:32.346Z,58.33
2022-08-08T06:51:20.016Z,57.04
2022-08-08T06:52:18.981Z,54.46
2022-08-08T06:53:20.644Z,58.49
2022-08-08T06:54:19.001Z,58.97
2022-08-08T06:55:18.997Z,58.01
2022-08-08T06:56:18.920Z,54.62
2022-08-08T06:57:18.923Z,57.20
2022-08-08T06:58:18.940Z,54.46
2022-08-08T06:59:18.917Z,55.91
2022-08-08T07:00:30.325Z,58.17
2022-08-08T07:02:17.648Z,54.30
2022-08-08T07:02:29.022Z,52.69
2022-08-08T07:04:35.564Z,58.81
2022-08-08T07:04:38.844Z,57.36
2022-08-08T07:05:24.834Z,58.01
2022-08-08T07:06:19.789Z,57.69
2022-08-08T07:07:18.760Z,57.20
2022-08-08T07:08:19.728Z,57.20
2022-08-08T07:09:20.885Z,55.91
2022-08-08T07:10:18.744Z,56.72
2022-08-08T07:11:21.941Z,53.82
2022-08-08T07:12:18.702Z,55.91
2022-08-08T07:13:18.676Z,55.43
2022-08-08T07:14:19.231Z,54.95
2022-08-08T07:15:40.877Z,55.59
2022-08-08T07:16:19.656Z,53.98
2022-08-08T07:17:19.895Z,57.36
2022-08-08T07:18:36.096Z,54.95
2022-08-08T07:19:19.638Z,55.59
2022-08-08T07:20:18.922Z,51.40
2022-08-08T07:21:20.567Z,57.20
2022-08-08T07:22:19.506Z,57.04
2022-08-08T07:23:23.300Z,55.43
2022-08-08T07:24:19.687Z,54.30
2022-08-08T07:25:19.314Z,54.46
2022-08-08T07:26:21.718Z,57.52
2022-08-08T07:27:19.497Z,53.17
2022-08-08T07:28:19.588Z,52.53
2022-08-08T07:29:55.457Z,52.05
2022-08-08T07:30:25.724Z,57.20
2022-08-08T07:31:20.436Z,55.11
2022-08-08T07:32:22.360Z,56.72
2022-08-08T07:33:19.421Z,56.88
2022-08-08T07:34:26.672Z,57.20
2022-08-08T07:35:19.385Z,56.56
2022-08-08T07:36:18.364Z,54.46
2022-08-08T07:37:18.516Z,52.53
2022-08-08T07:38:20.989Z,57.85
2022-08-08T07:39:19.430Z,58.97
2022-08-08T07:40:29.148Z,52.37
2022-08-08T07:41:24.748Z,54.95
2022-08-08T07:42:19.294Z,55.59
2022-08-08T07:43:32.372Z,55.43
2022-08-08T07:44:37.749Z,55.59
2022-08-08T07:45:19.309Z,58.33
2022-08-08T07:46:29.152Z,58.33
2022-08-08T07:47:29.118Z,58.65
2022-08-08T07:48:19.533Z,57.52
2022-08-08T07:49:18.449Z,57.20
2022-08-08T07:50:23.533Z,53.82
2022-08-08T07:51:23.756Z,58.01
2022-08-08T07:52:23.415Z,51.40
2022-08-08T07:53:52.112Z,54.14
2022-08-08T07:54:24.109Z,54.79
2022-08-08T07:55:19.145Z,55.75
2022-08-08T07:56:36.436Z,56.72
2022-08-08T07:57:19.949Z,59.78
2022-08-08T07:58:18.095Z,53.33
2022-08-08T07:59:19.217Z,55.11
2022-08-08T08:00:18.072Z,54.30
2022-08-08T08:01:18.176Z,54.62
2022-08-08T08:02:34.863Z,57.20
2022-08-08T08:03:23.549Z,52.37
2022-08-08T08:04:18.043Z,56.40
2022-08-08T08:05:18.001Z,55.43
2022-08-08T08:06:17.979Z,56.24
2022-08-08T08:07:18.076Z,55.11
2022-08-08T08:08:18.909Z,55.59
2022-08-08T08:09:18.014Z,54.14
2022-08-08T08:10:17.981Z,58.65
2022-08-08T08:11:20.874Z,55.27
2022-08-08T08:12:18.924Z,55.11
2022-08-08T08:13:18.914Z,54.95
2022-08-08T08:14:18.907Z,53.17
2022-08-08T08:15:17.888Z,56.40
2022-08-08T08:16:17.865Z,53.01
2022-08-08T08:17:17.895Z,53.66
2022-08-08T08:18:17.847Z,55.43
2022-08-08T08:19:19.666Z,53.33
2022-08-08T08:20:17.808Z,51.72
2022-08-08T08:21:18.826Z,53.33
2022-08-08T08:22:22.318Z,52.53
2022-08-08T08:23:19.134Z,58.01
2022-08-08T08:24:18.658Z,55.11
2022-08-08T08:25:35.836Z,54.46
2022-08-08T08:26:27.363Z,56.24
2022-08-08T08:27:18.816Z,55.43
2022-08-08T08:28:23.778Z,56.56
2022-08-08T08:29:19.324Z,56.88
2022-08-08T08:30:17.675Z,52.85
2022-08-08T08:31:17.716Z,58.49
2022-08-08T08:32:31.946Z,54.79
2022-08-08T08:33:19.994Z,53.17
2022-08-08T08:34:18.071Z,53.98
2022-08-08T08:35:17.649Z,54.95
2022-08-08T08:36:21.299Z,54.46
2022-08-08T08:37:20.638Z,51.72
2022-08-08T08:38:18.969Z,58.65
2022-08-08T08:39:23.015Z,55.59
2022-08-08T08:40:18.691Z,53.98
2022-08-08T08:41:17.971Z,54.62
2022-08-08T08:42:19.387Z,54.14
2022-08-08T08:43:18.640Z,53.82
2022-08-08T08:44:17.544Z,53.50
2022-08-08T08:45:22.792Z,55.27
2022-08-08T08:46:19.087Z,52.21
2022-08-08T08:47:18.065Z,54.62
2022-08-08T08:48:19.566Z,56.07
2022-08-08T08:49:17.496Z,57.04
2022-08-08T08:50:33.282Z,54.30
2022-08-08T08:51:18.424Z,55.43
2022-08-08T08:52:17.425Z,54.46
2022-08-08T08:53:55.068Z,56.07
2022-08-08T08:54:18.422Z,53.33
2022-08-08T08:55:20.876Z,54.46
2022-08-08T08:56:18.365Z,53.33
2022-08-08T08:57:18.363Z,54.14
2022-08-08T08:58:17.348Z,55.59
2022-08-08T08:59:22.142Z,53.01
2022-08-08T09:00:19.482Z,54.46
2022-08-08T09:01:17.449Z,49.63
2022-08-08T09:02:17.403Z,56.07
2022-08-08T09:03:19.410Z,57.69
2022-08-08T09:04:31.279Z,54.30
2022-08-08T09:05:48.827Z,54.62
2022-08-08T09:06:26.531Z,48.98
2022-08-08T09:07:18.230Z,52.69
2022-08-08T09:08:20.621Z,53.98
2022-08-08T09:09:26.521Z,53.82
2022-08-08T09:10:18.314Z,52.85
2022-08-08T09:11:17.208Z,54.79
2022-08-08T09:12:17.165Z,55.59
2022-08-08T09:13:17.151Z,56.24
2022-08-08T09:14:17.168Z,56.88
2022-08-08T09:15:37.118Z,55.59
2022-08-08T09:16:19.119Z,56.88
2022-08-08T09:17:19.174Z,55.75
2022-08-08T09:18:18.246Z,59.30
2022-08-08T09:19:29.148Z,56.88
2022-08-08T09:22:01.639Z,58.01
2022-08-08T09:22:02.631Z,53.33
2022-08-08T09:22:25.817Z,54.79
2022-08-08T09:23:25.371Z,55.91
2022-08-08T09:24:19.578Z,53.66
2022-08-08T09:25:17.019Z,54.95
2022-08-08T09:26:18.000Z,57.36
2022-08-08T09:27:20.903Z,56.72
2022-08-08T09:28:23.907Z,55.43
2022-08-08T09:29:22.172Z,57.69
2022-08-08T09:30:20.242Z,55.59
2022-08-08T09:31:16.953Z,52.69
2022-08-08T09:32:16.921Z,50.11
2022-08-08T09:34:15.232Z,56.56
2022-08-08T09:34:32.515Z,53.98
2022-08-08T09:35:17.914Z,56.72
2022-08-08T09:36:19.102Z,58.81
2022-08-08T09:37:37.405Z,56.88
2022-08-08T09:38:18.180Z,57.52
2022-08-08T09:39:19.038Z,55.59
2022-08-08T09:40:18.712Z,55.75
2022-08-08T09:41:16.891Z,56.88
2022-08-08T09:42:22.102Z,55.43
2022-08-08T09:43:23.920Z,56.56
2022-08-08T09:44:19.026Z,54.46
2022-08-08T09:45:54.481Z,55.11
2022-08-08T09:46:25.727Z,58.17
2022-08-08T09:48:02.226Z,55.91
2022-08-08T09:48:21.553Z,55.75
2022-08-08T09:49:41.340Z,55.11
2022-08-08T09:50:17.708Z,56.56
2022-08-08T09:51:16.685Z,53.33
2022-08-08T09:52:27.309Z,56.72
2022-08-08T09:53:25.579Z,53.33
2022-08-08T09:54:36.737Z,56.40
2022-08-08T09:55:51.637Z,54.62
2022-08-08T09:56:22.075Z,54.46
2022-08-08T09:57:19.061Z,54.95
2022-08-08T09:58:25.946Z,56.40
2022-08-08T09:59:50.170Z,55.91
2022-08-08T10:00:53.595Z,56.88
2022-08-08T10:01:59.777Z,54.95
2022-08-08T10:02:17.582Z,56.72
2022-08-08T10:03:19.961Z,55.43
2022-08-08T10:04:38.555Z,58.33
2022-08-08T10:05:23.063Z,54.62
2022-08-08T10:06:17.575Z,52.21
2022-08-08T10:07:16.761Z,53.66
2022-08-08T10:08:16.499Z,56.07
2022-08-08T10:09:16.463Z,53.66
2022-08-08T10:10:17.541Z,58.17
2022-08-08T10:12:26.084Z,55.11
2022-08-08T10:12:27.005Z,54.79
2022-08-08T10:13:17.503Z,56.07
2022-08-08T10:14:34.798Z,58.17
2022-08-08T10:15:18.691Z,54.62
2022-08-08T10:16:16.370Z,52.69
2022-08-08T10:17:57.059Z,56.88
2022-08-08T10:18:25.510Z,57.36
2022-08-08T10:19:18.387Z,56.40
2022-08-08T10:20:16.944Z,58.49
2022-08-08T10:21:25.679Z,56.72
2022-08-08T10:22:17.321Z,57.52
2022-08-08T10:23:29.255Z,55.75
2022-08-08T10:24:29.608Z,54.95
2022-08-08T10:25:17.594Z,55.59
2022-08-08T10:26:25.954Z,57.20
2022-08-08T10:27:17.220Z,52.85
2022-08-08T10:28:16.228Z,53.33
2022-08-08T10:29:21.082Z,55.59
2022-08-08T10:31:00.806Z,55.11
2022-08-08T10:31:17.190Z,58.33
2022-08-08T10:32:17.173Z,56.88
2022-08-08T10:33:17.931Z,58.33
2022-08-08T10:34:18.466Z,56.88
2022-08-08T10:36:01.990Z,58.65
2022-08-08T10:36:21.017Z,54.62
2022-08-08T10:37:17.105Z,57.52
2022-08-08T10:38:16.244Z,54.95
2022-08-08T10:39:16.138Z,54.30
2022-08-08T10:40:17.369Z,54.30
2022-08-08T10:41:16.060Z,54.79
2022-08-08T10:42:16.958Z,55.27
2022-08-08T10:43:16.029Z,55.91
2022-08-08T10:44:16.048Z,53.50
2022-08-08T10:45:16.435Z,58.17
2022-08-08T10:46:29.949Z,55.27
2022-08-08T10:47:20.656Z,50.27
2022-08-08T10:48:15.956Z,56.40
2022-08-08T10:49:26.747Z,53.50
2022-08-08T10:50:17.480Z,54.62
2022-08-08T10:51:15.951Z,55.75
2022-08-08T10:52:15.902Z,54.30
2022-08-08T10:53:15.959Z,58.81
2022-08-08T10:54:15.862Z,54.14
2022-08-08T10:55:39.596Z,56.56
2022-08-08T10:56:27.517Z,54.14
2022-08-08T10:57:16.851Z,51.40
2022-08-08T10:58:16.821Z,55.75
2022-08-08T10:59:15.790Z,57.85
2022-08-08T11:00:15.833Z,59.78
2022-08-08T11:01:16.111Z,58.33
2022-08-08T11:02:16.289Z,58.33
2022-08-08T11:03:15.864Z,60.26
2022-08-08T11:04:15.718Z,55.75
2022-08-08T11:05:17.892Z,56.88
2022-08-08T11:06:15.693Z,58.49
2022-08-08T11:08:31.904Z,57.36
2022-08-08T11:08:38.625Z,54.14
2022-08-08T11:09:21.366Z,56.56
2022-08-08T11:10:19.473Z,57.85
2022-08-08T11:11:32.675Z,57.52
2022-08-08T11:12:16.638Z,55.11
2022-08-08T11:13:31.927Z,57.52
2022-08-08T11:14:17.817Z,54.14
2022-08-08T11:15:15.577Z,59.14
2022-08-08T11:16:32.144Z,55.43
2022-08-08T11:17:16.550Z,57.69
2022-08-08T11:18:16.525Z,57.20
2022-08-08T11:19:17.235Z,55.75
2022-08-08T11:20:17.873Z,57.52
2022-08-08T11:21:19.745Z,58.01
2022-08-08T11:22:17.803Z,59.30
2022-08-08T11:23:15.482Z,58.01
2022-08-08T11:24:17.052Z,56.56
2022-08-08T11:25:16.489Z,60.42
2022-08-08T11:26:18.889Z,57.69
2022-08-08T11:27:19.781Z,53.33
2022-08-08T11:28:18.730Z,56.88
2022-08-08T11:29:15.805Z,58.17
2022-08-08T11:30:24.643Z,57.20
2022-08-08T11:31:16.732Z,60.26
2022-08-08T11:32:15.302Z,56.40
2022-08-08T11:33:15.286Z,56.40
2022-08-08T11:34:25.640Z,54.95
2022-08-08T11:35:25.945Z,57.52
2022-08-08T11:36:16.263Z,58.01
2022-08-08T11:37:15.747Z,53.01
2022-08-08T11:38:39.189Z,55.11
2022-08-08T11:39:16.340Z,58.33
2022-08-08T11:40:16.307Z,57.36
2022-08-08T11:41:16.170Z,56.72
2022-08-08T11:42:15.205Z,60.10
2022-08-08T11:43:15.183Z,55.27
2022-08-08T11:44:15.798Z,56.07
2022-08-08T11:45:18.415Z,55.11
2022-08-08T11:46:17.873Z,56.88
2022-08-08T11:47:17.119Z,55.11
2022-08-08T11:48:20.342Z,59.94
2022-08-08T11:49:42.780Z,58.65
2022-08-08T11:50:15.125Z,59.94
2022-08-08T11:51:37.959Z,59.62
2022-08-08T11:52:18.223Z,58.01
2022-08-08T11:53:16.002Z,58.33
2022-08-08T11:54:31.338Z,57.52
2022-08-08T11:55:15.981Z,53.17
2022-08-08T11:56:14.927Z,57.04
2022-08-08T11:57:16.927Z,56.72
2022-08-08T11:58:15.668Z,58.49
2022-08-08T11:59:14.882Z,52.53
2022-08-08T12:00:14.927Z,58.49
2022-08-08T12:01:16.416Z,55.75
2022-08-08T12:02:31.065Z,53.98
2022-08-08T12:03:16.900Z,54.30
2022-08-08T12:04:14.843Z,57.20
2022-08-08T12:05:14.857Z,54.62
2022-08-08T12:06:14.797Z,57.20
2022-08-08T12:07:17.336Z,55.43
2022-08-08T12:08:14.756Z,56.88
2022-08-08T12:09:17.053Z,53.33
2022-08-08T12:10:14.873Z,54.62
2022-08-08T12:11:14.708Z,58.01
2022-08-08T12:12:16.985Z,56.72
2022-08-08T12:13:15.671Z,51.72
2022-08-08T12:14:14.631Z,53.66
2022-08-08T12:15:14.685Z,56.56
2022-08-08T12:16:15.710Z,59.46
2022-08-08T12:17:14.605Z,56.72
2022-08-08T12:18:14.589Z,58.33
2022-08-08T12:19:14.592Z,53.17
2022-08-08T12:20:14.834Z,54.62
2022-08-08T12:21:14.537Z,56.72
2022-08-08T12:22:20.918Z,55.27
2022-08-08T12:23:30.636Z,57.69
2022-08-08T12:24:15.493Z,59.30
2022-08-08T12:25:14.592Z,58.17
2022-08-08T12:26:17.364Z,55.27
2022-08-08T12:27:18.223Z,58.17
2022-08-08T12:28:16.148Z,60.75
2022-08-08T12:29:15.428Z,59.30
2022-08-08T12:30:15.686Z,56.24
2022-08-08T12:31:14.416Z,58.97
2022-08-08T12:32:17.147Z,56.56
2022-08-08T12:33:15.343Z,54.79
2022-08-08T12:34:15.397Z,55.59
2022-08-08T12:35:18.071Z,58.49
2022-08-08T12:36:14.314Z,57.20
2022-08-08T12:37:14.326Z,59.78
2022-08-08T12:38:17.653Z,55.11
2022-08-08T12:39:15.296Z,56.72
2022-08-08T12:40:24.189Z,57.85
2022-08-08T12:41:34.051Z,57.20
2022-08-08T12:42:33.027Z,53.98
2022-08-08T12:43:15.202Z,58.49
2022-08-08T12:44:30.242Z,55.11
2022-08-08T12:45:53.710Z,54.95
2022-08-08T12:46:19.266Z,52.21
2022-08-08T12:47:15.127Z,57.36
2022-08-08T12:48:35.784Z,58.33
2022-08-08T12:49:29.528Z,58.81
2022-08-08T12:50:16.197Z,60.59
2022-08-08T12:51:14.159Z,62.68